createdAt,value
2019-01-13T00:00:33.587Z,99.90
2019-01-13T00:03:01.889Z,99.90
2019-01-13T00:05:30.010Z,99.90
2019-01-13T00:07:58.316Z,99.90
2019-01-13T00:10:26.677Z,99.90
2019-01-13T00:12:55.384Z,99.70
2019-01-13T00:15:23.536Z,99.40
2019-01-13T00:17:52.219Z,99.70
2019-01-13T00:20:20.218Z,99.80
2019-01-13T00:22:48.568Z,99.50
2019-01-13T00:25:17.602Z,99.40
2019-01-13T00:27:45.825Z,99.60
2019-01-13T00:30:19.106Z,99.80
2019-01-13T00:32:44.447Z,99.70
2019-01-13T00:35:13.017Z,99.40
2019-01-13T00:37:41.528Z,99.60
2019-01-13T00:40:11.683Z,99.80
2019-01-13T00:42:39.718Z,99.90
2019-01-13T00:45:08.717Z,99.90
2019-01-13T00:47:36.884Z,99.70
2019-01-13T00:50:06.824Z,99.50
2019-01-13T00:52:35.012Z,99.40
2019-01-13T00:55:03.451Z,99.50
2019-01-13T00:57:32.011Z,99.50
2019-01-13T01:00:00.256Z,99.70
2019-01-13T01:02:28.777Z,99.80
2019-01-13T01:04:56.716Z,99.50
2019-01-13T01:07:24.733Z,99.60
2019-01-13T01:09:52.700Z,99.60
2019-01-13T01:12:21.087Z,99.80
2019-01-13T01:14:49.224Z,99.20
2019-01-13T01:17:17.845Z,99.30
2019-01-13T01:19:45.920Z,99.30
2019-01-13T01:22:14.271Z,99.50
2019-01-13T01:24:42.357Z,99.60
2019-01-13T01:27:10.811Z,99.60
2019-01-13T01:29:39.407Z,99.20
2019-01-13T01:32:08.066Z,99.40
2019-01-13T01:34:36.503Z,99.40
2019-01-13T01:37:04.521Z,99.40
2019-01-13T01:39:32.899Z,99.10
2019-01-13T01:42:01.025Z,99.00
2019-01-13T01:44:28.723Z,99.20
2019-01-13T01:46:56.430Z,99.20
2019-01-13T01:49:24.535Z,99.50
2019-01-13T01:51:53.249Z,99.90
2019-01-13T01:54:20.969Z,99.30
2019-01-13T01:56:49.070Z,99.20
2019-01-13T01:59:16.795Z,99.30
2019-01-13T02:01:45.277Z,99.40
2019-01-13T02:04:13.662Z,99.40
2019-01-13T02:06:41.392Z,99.00
2019-01-13T02:09:09.427Z,99.00
2019-01-13T02:11:37.552Z,99.00
2019-01-13T02:14:06.369Z,98.90
2019-01-13T02:16:34.938Z,98.80
2019-01-13T02:19:03.436Z,98.50
2019-01-13T02:21:31.986Z,98.50
2019-01-13T02:24:00.118Z,98.60
2019-01-13T02:26:28.429Z,98.60
2019-01-13T02:28:57.136Z,98.70
2019-01-13T02:31:25.204Z,98.90
2019-01-13T02:33:53.620Z,98.60
2019-01-13T02:36:21.646Z,98.30
2019-01-13T02:38:50.339Z,98.50
2019-01-13T02:41:18.382Z,98.50
2019-01-13T02:43:47.389Z,98.50
2019-01-13T02:46:16.038Z,98.50
2019-01-13T02:48:44.126Z,98.70
2019-01-13T02:51:12.857Z,98.60
2019-01-13T02:53:41.187Z,98.50
2019-01-13T02:56:09.886Z,98.70
2019-01-13T02:58:38.264Z,98.60
2019-01-13T03:01:06.394Z,98.70
2019-01-13T03:03:34.726Z,98.70
2019-01-13T03:06:02.989Z,98.90
2019-01-13T03:08:31.570Z,98.90
2019-01-13T03:11:00.040Z,99.20
2019-01-13T03:13:28.516Z,99.20
2019-01-13T03:15:57.209Z,99.20
2019-01-13T03:18:25.376Z,99.00
2019-01-13T03:20:53.695Z,99.60
2019-01-13T03:23:22.051Z,99.80
2019-01-13T03:25:50.468Z,99.90
2019-01-13T03:28:18.934Z,99.80
2019-01-13T03:30:47.535Z,99.90
2019-01-13T03:33:15.800Z,99.90
2019-01-13T03:35:44.347Z,99.90
2019-01-13T03:38:12.343Z,99.90
2019-01-13T03:40:40.845Z,99.90
2019-01-13T03:43:10.119Z,99.90
2019-01-13T03:45:37.862Z,99.90
2019-01-13T03:48:06.471Z,99.90
2019-01-13T03:50:35.806Z,99.90
2019-01-13T03:53:03.876Z,99.90
2019-01-13T03:55:31.936Z,99.90
2019-01-13T03:58:00.053Z,99.90
2019-01-13T04:00:28.173Z,99.90
2019-01-13T04:02:56.575Z,99.90
2019-01-13T04:05:24.406Z,99.90
2019-01-13T04:07:52.829Z,99.90
2019-01-13T04:10:20.749Z,99.90
2019-01-13T04:12:48.695Z,99.90
2019-01-13T04:15:42.353Z,99.90
2019-01-13T04:18:10.641Z,99.90
2019-01-13T04:20:38.711Z,99.90
2019-01-13T04:23:09.319Z,99.90
2019-01-13T04:25:37.903Z,99.90
2019-01-13T04:28:06.631Z,99.90
2019-01-13T04:30:34.689Z,99.90
2019-01-13T04:33:02.390Z,99.90
2019-01-13T04:35:30.302Z,99.90
2019-01-13T04:37:58.585Z,99.90
2019-01-13T04:40:26.995Z,99.90
2019-01-13T04:42:55.059Z,99.90
2019-01-13T04:45:23.284Z,99.90
2019-01-13T04:47:51.001Z,99.90
2019-01-13T04:50:19.089Z,99.90
2019-01-13T04:52:47.229Z,99.90
2019-01-13T04:55:27.010Z,99.90
2019-01-13T04:57:55.326Z,99.90
2019-01-13T05:00:23.523Z,99.90
2019-01-13T05:02:56.293Z,99.90
2019-01-13T05:05:24.745Z,99.90
2019-01-13T05:07:52.666Z,99.90
2019-01-13T05:10:21.384Z,99.90
2019-01-13T05:13:17.718Z,99.90
2019-01-13T05:16:01.558Z,99.90
2019-01-13T05:18:51.609Z,99.90
2019-01-13T05:21:36.282Z,99.90
2019-01-13T05:24:16.946Z,99.90
2019-01-13T05:27:01.382Z,99.90
2019-01-13T05:29:43.255Z,99.90
2019-01-13T05:32:36.865Z,99.90
2019-01-13T05:35:22.900Z,99.90
2019-01-13T05:38:14.838Z,99.90
2019-01-13T05:41:06.687Z,99.90
2019-01-13T05:43:53.280Z,99.90
2019-01-13T05:46:36.898Z,99.90
2019-01-13T05:49:24.745Z,99.90
2019-01-13T05:52:05.659Z,99.90
2019-01-13T05:54:34.330Z,99.90
2019-01-13T05:57:02.521Z,99.90
2019-01-13T05:59:30.987Z,99.90
2019-01-13T06:01:58.799Z,99.90
2019-01-13T06:04:26.991Z,99.90
2019-01-13T06:06:55.664Z,99.90
2019-01-13T06:09:23.846Z,99.90
2019-01-13T06:11:51.860Z,99.90
2019-01-13T06:14:19.671Z,99.90
2019-01-13T06:16:47.431Z,99.90
2019-01-13T06:19:15.691Z,99.90
2019-01-13T06:21:43.498Z,99.90
2019-01-13T06:24:11.360Z,99.90
2019-01-13T06:26:39.810Z,99.90
2019-01-13T06:29:08.310Z,99.90
2019-01-13T06:31:36.621Z,99.90
2019-01-13T06:34:04.461Z,99.90
2019-01-13T06:36:32.902Z,99.90
2019-01-13T06:39:02.206Z,99.90
2019-01-13T06:41:30.004Z,99.90
2019-01-13T06:43:58.333Z,99.90
2019-01-13T06:46:37.683Z,99.90
2019-01-13T06:49:06.149Z,99.90
2019-01-13T06:51:33.976Z,99.90
2019-01-13T06:54:11.116Z,99.90
2019-01-13T06:56:39.419Z,99.90
2019-01-13T06:59:08.033Z,99.90
2019-01-13T07:01:35.871Z,99.90
2019-01-13T07:04:06.167Z,99.90
2019-01-13T07:06:33.962Z,99.90
2019-01-13T07:09:01.905Z,99.90
2019-01-13T07:11:29.730Z,99.90
2019-01-13T07:13:57.903Z,99.90
2019-01-13T07:16:25.762Z,99.90
2019-01-13T07:18:53.582Z,99.90
2019-01-13T07:21:22.050Z,99.90
2019-01-13T07:23:51.800Z,99.90
2019-01-13T07:26:21.268Z,99.90
2019-01-13T07:28:49.504Z,99.90
2019-01-13T07:31:17.355Z,99.90
2019-01-13T07:33:47.094Z,99.90
2019-01-13T07:36:14.849Z,99.90
2019-01-13T07:38:45.100Z,99.90
2019-01-13T07:41:13.130Z,99.90
2019-01-13T07:43:41.325Z,99.90
2019-01-13T07:46:09.134Z,99.90
2019-01-13T07:48:37.160Z,99.90
2019-01-13T07:51:04.971Z,99.90
2019-01-13T07:53:33.205Z,99.90
2019-01-13T07:56:02.608Z,99.90
2019-01-13T07:58:31.839Z,99.90
2019-01-13T08:01:01.672Z,99.90
2019-01-13T08:03:30.001Z,99.90
2019-01-13T08:05:57.982Z,99.90
2019-01-13T08:08:25.948Z,99.90
2019-01-13T08:10:54.124Z,99.90
2019-01-13T08:13:21.982Z,99.90
2019-01-13T08:15:49.802Z,99.90
2019-01-13T08:18:18.435Z,99.90
2019-01-13T08:20:49.296Z,99.90
2019-01-13T08:23:17.063Z,99.90
2019-01-13T08:25:46.777Z,99.90
2019-01-13T08:28:15.025Z,99.90
2019-01-13T08:30:43.950Z,99.90
2019-01-13T08:33:11.891Z,99.90
2019-01-13T08:35:39.816Z,99.90
2019-01-13T08:38:07.649Z,99.90
2019-01-13T08:40:35.475Z,99.90
2019-01-13T08:43:04.593Z,99.90
2019-01-13T08:45:33.419Z,99.90
2019-01-13T08:48:01.280Z,99.90
2019-01-13T08:50:29.351Z,99.90
2019-01-13T08:52:58.485Z,99.90
2019-01-13T08:55:30.124Z,99.90
2019-01-13T08:57:58.315Z,99.90
2019-01-13T09:00:28.445Z,99.50
2019-01-13T09:02:57.437Z,99.80
2019-01-13T09:05:25.641Z,99.80
2019-01-13T09:07:54.257Z,99.90
2019-01-13T09:10:23.358Z,99.90
2019-01-13T09:12:56.657Z,99.80
2019-01-13T09:15:23.148Z,99.80
2019-01-13T09:17:51.216Z,99.90
2019-01-13T09:20:22.134Z,99.70
2019-01-13T09:22:50.435Z,99.90
2019-01-13T09:25:18.946Z,99.70
2019-01-13T09:27:47.358Z,99.00
2019-01-13T09:30:20.508Z,99.20
2019-01-13T09:32:49.257Z,99.20
2019-01-13T09:35:17.717Z,98.90
2019-01-13T09:37:46.307Z,99.40
2019-01-13T09:40:17.622Z,99.20
2019-01-13T09:42:46.235Z,98.60
2019-01-13T09:45:14.537Z,98.40
2019-01-13T09:47:42.904Z,98.10
2019-01-13T09:50:13.494Z,98.10
2019-01-13T09:52:41.434Z,98.10
2019-01-13T09:55:14.373Z,98.30
2019-01-13T09:57:42.671Z,97.80
2019-01-13T10:00:20.588Z,97.80
2019-01-13T10:02:49.653Z,97.80
2019-01-13T10:05:18.574Z,97.30
2019-01-13T10:07:47.033Z,97.20
2019-01-13T10:10:15.296Z,96.70
2019-01-13T10:12:43.404Z,96.50
2019-01-13T10:15:14.087Z,96.50
2019-01-13T10:17:42.837Z,95.90
2019-01-13T10:20:12.413Z,96.00
2019-01-13T10:22:40.434Z,96.00
2019-01-13T10:25:08.982Z,95.80
2019-01-13T10:27:37.580Z,95.40
2019-01-13T10:30:14.865Z,96.20
2019-01-13T10:32:43.440Z,95.90
2019-01-13T10:35:11.623Z,95.80
2019-01-13T10:37:40.217Z,95.80
2019-01-13T10:40:12.384Z,96.00
2019-01-13T10:42:40.220Z,95.30
2019-01-13T10:45:09.710Z,95.70
2019-01-13T10:47:38.386Z,95.30
2019-01-13T10:50:10.586Z,96.00
2019-01-13T10:52:38.888Z,95.60
2019-01-13T10:55:07.370Z,95.40
2019-01-13T10:57:36.256Z,95.30
2019-01-13T11:00:17.359Z,95.30
2019-01-13T11:02:45.550Z,95.00
2019-01-13T11:05:13.681Z,95.00
2019-01-13T11:07:47.445Z,95.40
2019-01-13T11:10:19.884Z,95.90
2019-01-13T11:12:47.712Z,95.50
2019-01-13T11:15:21.582Z,95.50
2019-01-13T11:17:45.879Z,95.50
2019-01-13T11:20:34.781Z,96.00
2019-01-13T11:23:04.327Z,95.50
2019-01-13T11:25:32.619Z,95.70
2019-01-13T11:28:01.163Z,96.00
2019-01-13T11:30:30.155Z,95.40
2019-01-13T11:32:58.377Z,95.50
2019-01-13T11:35:26.354Z,95.90
2019-01-13T11:37:54.190Z,96.50
2019-01-13T11:40:25.060Z,96.50
2019-01-13T11:42:55.946Z,96.20
2019-01-13T11:45:24.227Z,95.70
2019-01-13T11:47:52.143Z,96.00
2019-01-13T11:50:21.050Z,95.60
2019-01-13T11:52:49.513Z,94.80
2019-01-13T11:55:17.839Z,94.50
2019-01-13T11:57:45.869Z,94.30
2019-01-13T12:00:28.952Z,94.60
2019-01-13T12:02:56.909Z,94.80
2019-01-13T12:05:24.990Z,94.90
2019-01-13T12:07:53.736Z,94.40
2019-01-13T12:10:22.069Z,94.60
2019-01-13T12:12:51.110Z,94.80
2019-01-13T12:15:20.726Z,94.30
2019-01-13T12:17:48.587Z,93.90
2019-01-13T12:20:18.392Z,93.90
2019-01-13T12:22:47.735Z,93.30
2019-01-13T12:25:17.279Z,92.60
2019-01-13T12:27:45.962Z,91.90
2019-01-13T12:30:25.893Z,91.40
2019-01-13T12:32:53.835Z,91.40
2019-01-13T12:35:22.132Z,91.30
2019-01-13T12:37:50.034Z,90.70
2019-01-13T12:40:19.015Z,90.90
2019-01-13T12:42:47.410Z,90.70
2019-01-13T12:45:16.699Z,90.60
2019-01-13T12:47:46.751Z,90.90
2019-01-13T12:50:18.683Z,90.80
2019-01-13T12:52:46.799Z,90.50
2019-01-13T12:55:14.615Z,90.90
2019-01-13T12:57:44.901Z,90.60
2019-01-13T13:00:15.336Z,90.20
2019-01-13T13:02:46.095Z,90.30
2019-01-13T13:05:14.591Z,89.70
2019-01-13T13:07:42.958Z,90.10
2019-01-13T13:10:20.281Z,89.90
2019-01-13T13:12:48.274Z,88.90
2019-01-13T13:15:16.964Z,90.30
2019-01-13T13:17:46.174Z,90.20
2019-01-13T13:20:14.793Z,90.00
2019-01-13T13:22:43.430Z,89.00
2019-01-13T13:25:12.147Z,87.70
2019-01-13T13:27:43.357Z,88.10
2019-01-13T13:30:15.742Z,87.80
2019-01-13T13:32:45.758Z,87.50
2019-01-13T13:35:14.535Z,88.00
2019-01-13T13:37:43.056Z,85.00
2019-01-13T13:40:12.484Z,84.40
2019-01-13T13:42:41.568Z,85.30
2019-01-13T13:45:11.338Z,86.50
2019-01-13T13:47:39.387Z,85.70
2019-01-13T13:50:10.601Z,85.20
2019-01-13T13:52:39.577Z,86.70
2019-01-13T13:55:09.366Z,84.80
2019-01-13T13:57:37.448Z,84.00
2019-01-13T14:00:17.927Z,83.80
2019-01-13T14:02:46.916Z,83.70
2019-01-13T14:05:14.834Z,83.50
2019-01-13T14:07:42.660Z,82.60
2019-01-13T14:10:17.666Z,82.90
2019-01-13T14:12:46.276Z,84.50
2019-01-13T14:15:14.549Z,85.00
2019-01-13T14:17:43.648Z,86.30
2019-01-13T14:20:13.873Z,87.10
2019-01-13T14:22:42.232Z,87.70
2019-01-13T14:25:10.427Z,87.80
2019-01-13T14:27:39.789Z,87.20
2019-01-13T14:30:12.365Z,87.60
2019-01-13T14:32:42.197Z,88.80
2019-01-13T14:35:10.989Z,88.10
2019-01-13T14:37:39.268Z,89.60
2019-01-13T14:40:10.416Z,89.10
2019-01-13T14:42:39.281Z,89.40
2019-01-13T14:45:11.004Z,88.80
2019-01-13T14:47:39.514Z,89.70
2019-01-13T14:50:09.999Z,89.90
2019-01-13T14:52:38.055Z,90.30
2019-01-13T14:55:06.822Z,90.40
2019-01-13T14:57:35.340Z,90.60
2019-01-13T15:00:06.547Z,90.40
2019-01-13T15:02:34.599Z,90.80
2019-01-13T15:05:02.877Z,91.60
2019-01-13T15:07:30.724Z,91.70
2019-01-13T15:10:00.242Z,91.70
2019-01-13T15:12:29.922Z,91.70
2019-01-13T15:14:58.127Z,91.70
2019-01-13T15:17:26.774Z,91.90
2019-01-13T15:19:56.304Z,92.00
2019-01-13T15:22:24.692Z,91.90
2019-01-13T15:24:53.854Z,91.70
2019-01-13T15:27:22.105Z,92.40
2019-01-13T15:29:50.473Z,92.10
2019-01-13T15:32:18.530Z,92.00
2019-01-13T15:34:47.197Z,91.50
2019-01-13T15:37:17.030Z,91.50
2019-01-13T15:39:45.058Z,91.60
2019-01-13T15:42:14.922Z,91.60
2019-01-13T15:44:43.554Z,91.70
2019-01-13T15:47:13.375Z,91.50
2019-01-13T15:49:42.016Z,91.70
2019-01-13T15:52:13.108Z,92.20
2019-01-13T15:54:41.501Z,91.80
2019-01-13T15:57:12.364Z,91.80
2019-01-13T15:59:40.315Z,92.00
2019-01-13T16:02:08.900Z,92.30
2019-01-13T16:04:37.559Z,92.10
2019-01-13T16:07:05.526Z,92.30
2019-01-13T16:09:34.775Z,92.20
2019-01-13T16:12:05.065Z,92.30
2019-01-13T16:14:33.433Z,92.00
2019-01-13T16:17:02.891Z,92.40
2019-01-13T16:19:35.032Z,92.30
2019-01-13T16:22:05.175Z,92.40
2019-01-13T16:24:34.495Z,92.60
2019-01-13T16:27:03.374Z,92.50
2019-01-13T16:29:31.989Z,92.80
2019-01-13T16:31:59.903Z,93.10
2019-01-13T16:34:28.135Z,93.10
2019-01-13T16:36:56.612Z,93.50
2019-01-13T16:39:25.174Z,93.10
2019-01-13T16:41:53.512Z,93.30
2019-01-13T16:44:22.157Z,93.20
2019-01-13T16:46:49.974Z,92.60
2019-01-13T16:49:18.413Z,92.60
2019-01-13T16:51:47.955Z,92.90
2019-01-13T16:54:16.411Z,93.40
2019-01-13T16:56:48.248Z,93.50
2019-01-13T16:59:16.670Z,93.60
2019-01-13T17:01:45.096Z,94.10
2019-01-13T17:04:12.958Z,94.00
2019-01-13T17:06:43.850Z,93.70
2019-01-13T17:09:12.953Z,93.50
2019-01-13T17:11:41.320Z,93.20
2019-01-13T17:14:12.259Z,92.70
2019-01-13T17:16:42.656Z,92.70
2019-01-13T17:19:11.779Z,92.70
2019-01-13T17:21:43.368Z,92.60
2019-01-13T17:24:11.655Z,92.40
2019-01-13T17:26:41.037Z,92.40
2019-01-13T17:29:09.471Z,92.50
2019-01-13T17:31:38.288Z,92.30
2019-01-13T17:34:08.286Z,92.50
2019-01-13T17:36:38.552Z,92.30
2019-01-13T17:39:09.538Z,92.30
2019-01-13T17:41:37.803Z,92.40
2019-01-13T17:44:05.970Z,92.40
2019-01-13T17:46:37.096Z,92.40
2019-01-13T17:49:05.677Z,92.50
2019-01-13T17:51:34.201Z,92.30
2019-01-13T17:54:04.318Z,92.10
2019-01-13T17:56:37.596Z,92.30
2019-01-13T17:59:06.177Z,92.40
2019-01-13T18:01:44.056Z,92.30
2019-01-13T18:04:13.970Z,92.40
2019-01-13T18:06:42.720Z,92.30
2019-01-13T18:09:13.113Z,92.60
2019-01-13T18:11:40.968Z,92.60
2019-01-13T18:14:10.515Z,92.40
2019-01-13T18:16:39.827Z,92.50
2019-01-13T18:19:08.814Z,92.30
2019-01-13T18:21:38.267Z,92.30
2019-01-13T18:24:06.345Z,92.30
2019-01-13T18:26:35.316Z,92.30
2019-01-13T18:29:04.306Z,92.60
2019-01-13T18:31:32.868Z,92.60
2019-01-13T18:34:01.422Z,92.60
2019-01-13T18:36:29.682Z,93.30
2019-01-13T18:38:58.535Z,93.40
2019-01-13T18:41:26.826Z,92.60
2019-01-13T18:43:57.728Z,92.20
2019-01-13T18:46:28.668Z,92.40
2019-01-13T18:48:56.974Z,92.60
2019-01-13T18:51:26.793Z,92.50
2019-01-13T18:53:56.447Z,92.90
2019-01-13T18:56:25.080Z,92.40
2019-01-13T18:58:54.095Z,92.40
2019-01-13T19:01:24.036Z,92.60
2019-01-13T19:03:52.092Z,92.30
2019-01-13T19:06:20.549Z,92.50
2019-01-13T19:08:49.715Z,92.40
2019-01-13T19:11:27.331Z,92.40
2019-01-13T19:14:35.042Z,92.60
2019-01-13T19:17:07.840Z,92.40
2019-01-13T19:19:49.076Z,92.50
2019-01-13T19:22:19.570Z,92.70
2019-01-13T19:24:52.314Z,92.70
2019-01-13T19:27:21.398Z,92.60
2019-01-13T19:29:49.762Z,92.60
2019-01-13T19:32:19.507Z,92.60
2019-01-13T19:34:48.570Z,92.50
2019-01-13T19:37:18.514Z,92.50
2019-01-13T19:39:46.653Z,92.60
2019-01-13T19:42:14.863Z,92.90
2019-01-13T19:44:43.208Z,92.90
2019-01-13T19:47:13.196Z,92.70
2019-01-13T19:49:41.590Z,92.70
2019-01-13T19:52:09.563Z,92.60
2019-01-13T19:54:37.420Z,92.40
2019-01-13T19:57:08.750Z,92.20
2019-01-13T19:59:36.983Z,92.10
2019-01-13T20:02:05.967Z,91.90
2019-01-13T20:04:33.816Z,91.80
2019-01-13T20:07:02.297Z,91.70
2019-01-13T20:09:30.109Z,91.90
2019-01-13T20:11:58.486Z,91.50
2019-01-13T20:14:26.561Z,91.80
2019-01-13T20:16:54.902Z,91.80
2019-01-13T20:19:22.715Z,91.70
2019-01-13T20:21:50.869Z,91.60
2019-01-13T20:24:19.370Z,91.60
2019-01-13T20:26:47.240Z,91.40
2019-01-13T20:29:15.405Z,91.10
2019-01-13T20:31:44.260Z,91.00
2019-01-13T20:34:12.959Z,91.00
2019-01-13T20:36:41.196Z,91.00
2019-01-13T20:39:10.246Z,91.00
2019-01-13T20:41:39.999Z,90.80
2019-01-13T20:44:08.362Z,91.00
2019-01-13T20:46:36.993Z,90.60
2019-01-13T20:49:05.121Z,90.50
2019-01-13T20:51:33.347Z,90.70
2019-01-13T20:54:07.798Z,90.50
2019-01-13T20:56:32.515Z,90.50
2019-01-13T20:59:02.584Z,90.30
2019-01-13T21:01:30.858Z,90.50
2019-01-13T21:03:59.154Z,90.20
2019-01-13T21:06:27.404Z,90.20
2019-01-13T21:08:56.576Z,90.10
2019-01-13T21:11:24.830Z,90.10
2019-01-13T21:13:54.252Z,90.30
2019-01-13T21:16:22.563Z,90.00
2019-01-13T21:18:51.919Z,90.00
2019-01-13T21:21:20.786Z,90.10
2019-01-13T21:23:49.808Z,90.30
2019-01-13T21:26:20.270Z,90.00
2019-01-13T21:28:48.475Z,90.50
2019-01-13T21:31:17.046Z,90.40
2019-01-13T21:33:45.017Z,90.10
2019-01-13T21:36:13.318Z,90.30
2019-01-13T21:38:41.160Z,90.30
2019-01-13T21:41:09.641Z,89.90
2019-01-13T21:43:37.515Z,90.10
2019-01-13T21:46:07.544Z,90.00
2019-01-13T21:48:35.324Z,90.10
2019-01-13T21:51:03.805Z,89.20
2019-01-13T21:53:32.180Z,89.90
2019-01-13T21:56:01.880Z,89.40
2019-01-13T21:58:30.713Z,90.30
2019-01-13T22:00:58.842Z,90.40
2019-01-13T22:03:27.091Z,90.40
2019-01-13T22:05:56.594Z,90.40
2019-01-13T22:08:24.904Z,90.40
2019-01-13T22:10:53.202Z,90.50
2019-01-13T22:13:21.411Z,90.70
2019-01-13T22:15:49.827Z,90.70
2019-01-13T22:18:18.460Z,90.70
2019-01-13T22:20:46.310Z,90.60
2019-01-13T22:23:14.653Z,90.50
2019-01-13T22:25:44.658Z,90.80
2019-01-13T22:28:12.971Z,90.90
2019-01-13T22:30:41.203Z,90.60
2019-01-13T22:33:10.642Z,90.40
2019-01-13T22:35:39.965Z,90.10
2019-01-13T22:38:14.227Z,90.10
2019-01-13T22:40:42.906Z,90.10
2019-01-13T22:43:11.681Z,89.50
2019-01-13T22:45:40.383Z,89.70
2019-01-13T22:48:09.838Z,89.10
2019-01-13T22:50:38.397Z,89.10
2019-01-13T22:53:06.458Z,89.90
2019-01-13T22:55:34.512Z,89.60
2019-01-13T22:58:03.562Z,89.30
2019-01-13T23:00:57.254Z,89.30
2019-01-13T23:03:25.766Z,89.80
2019-01-13T23:05:55.758Z,90.50
2019-01-13T23:08:24.510Z,90.00
2019-01-13T23:10:53.693Z,90.20
2019-01-13T23:13:21.865Z,90.70
2019-01-13T23:15:50.265Z,90.50
2019-01-13T23:18:21.330Z,91.80
2019-01-13T23:20:50.077Z,91.90
2019-01-13T23:23:18.313Z,92.30
2019-01-13T23:25:46.106Z,92.20
2019-01-13T23:28:14.330Z,92.30
2019-01-13T23:30:42.124Z,92.30
2019-01-13T23:33:10.125Z,92.10
2019-01-13T23:35:39.118Z,92.30
2019-01-13T23:38:07.010Z,92.30
2019-01-13T23:40:36.191Z,92.30
2019-01-13T23:43:04.839Z,92.20
2019-01-13T23:45:33.318Z,92.50
2019-01-13T23:48:01.684Z,92.20
2019-01-13T23:50:30.830Z,91.80
2019-01-13T23:52:59.894Z,91.90
2019-01-13T23:55:29.130Z,91.90
2019-01-13T23:57:59.634Z,91.90
